Time;durP1;ratioP1;P1;durP2;ratioP2;P2;SDS_P1;SDS_P2;PMS_P1;PMS_P2;Temp;Humidity;BMP_temperature;BMP_pressure;BME280_temperature;BME280_humidity;BME280_pressure;Samples;Min_cycle;Max_cycle;Signal;HPM_P1;HPM_P2
2022/06/05 00:01:41;;;;;;;0.03;0.03;;;;;;;;;;5115663;28;20246;-70
2022/06/05 00:04:12;;;;;;;0.10;0.10;;;;;;;;;;5110251;28;20203;-70
2022/06/05 00:06:41;;;;;;;0.03;0.03;;;;;;;;;;5116762;28;20250;-70
2022/06/05 00:09:17;;;;;;;0.00;0.00;;;;;;;;;;5109001;28;20200;-71
2022/06/05 00:11:47;;;;;;;0.00;0.00;;;;;;;;;;5118608;28;20237;-70
2022/06/05 00:14:15;;;;;;;0.00;0.00;;;;;;;;;;5107363;28;20279;-71
2022/06/05 00:16:41;;;;;;;0.00;0.00;;;;;;;;;;5117985;28;20285;-71
2022/06/05 00:19:07;;;;;;;0.03;0.03;;;;;;;;;;5110343;28;20223;-70
2022/06/05 00:21:34;;;;;;;0.10;0.10;;;;;;;;;;5119852;27;20243;-71
2022/06/05 00:24:00;;;;;;;0.08;0.08;;;;;;;;;;5114573;27;20507;-71
2022/06/05 00:26:29;;;;;;;0.10;0.10;;;;;;;;;;5118058;27;20265;-70
2022/06/05 00:29:00;;;;;;;0.10;0.10;;;;;;;;;;5115643;27;20266;-71
2022/06/05 00:31:32;;;;;;;0.03;0.03;;;;;;;;;;5118385;27;20241;-70
2022/06/05 00:33:58;;;;;;;0.10;0.10;;;;;;;;;;5115157;27;20248;-70
2022/06/05 00:36:31;;;;;;;0.00;0.00;;;;;;;;;;5117581;27;20237;-71
2022/06/05 00:39:02;;;;;;;0.10;0.10;;;;;;;;;;5115043;27;20225;-69
2022/06/05 00:41:44;;;;;;;0.10;0.10;;;;;;;;;;5118487;27;20243;-69
2022/06/05 00:44:12;;;;;;;0.10;0.10;;;;;;;;;;5108285;27;20206;-70
2022/06/05 00:46:41;;;;;;;0.10;0.10;;;;;;;;;;5120998;27;20255;-70
2022/06/05 00:49:07;;;;;;;0.10;0.10;;;;;;;;;;5112301;27;20202;-70
2022/06/05 00:51:34;;;;;;;0.10;0.10;;;;;;;;;;5119587;27;20237;-71
2022/06/05 00:54:00;;;;;;;0.10;0.10;;;;;;;;;;5113795;27;20444;-70
2022/06/05 00:56:26;;;;;;;0.10;0.10;;;;;;;;;;5117697;27;20246;-71
2022/06/05 00:58:53;;;;;;;0.22;0.22;;;;;;;;;;5115583;27;20226;-70
2022/06/05 01:01:20;;;;;;;0.00;0.00;;;;;;;;;;5115714;27;20295;-70
2022/06/05 01:03:48;;;;;;;0.05;0.05;;;;;;;;;;5117434;27;20557;-70
2022/06/05 01:06:14;;;;;;;0.00;0.00;;;;;;;;;;5113960;27;20269;-70
2022/06/05 01:08:41;;;;;;;0.10;0.10;;;;;;;;;;5118959;27;20210;-70
2022/06/05 01:11:13;;;;;;;0.10;0.10;;;;;;;;;;5112109;27;20548;-70
2022/06/05 01:13:42;;;;;;;0.10;0.10;;;;;;;;;;5118900;27;20205;-70
2022/06/05 01:16:14;;;;;;;0.07;0.07;;;;;;;;;;5112380;27;20247;-72
2022/06/05 01:18:44;;;;;;;0.10;0.10;;;;;;;;;;5118641;27;20203;-70
2022/06/05 01:21:32;;;;;;;0.10;0.10;;;;;;;;;;5112488;27;20604;-69
2022/06/05 01:24:04;;;;;;;0.00;0.00;;;;;;;;;;5113857;27;20211;-70
2022/06/05 01:26:35;;;;;;;0.00;0.00;;;;;;;;;;5118120;27;20616;-71
2022/06/05 01:29:03;;;;;;;0.03;0.03;;;;;;;;;;5112770;27;20214;-71
2022/06/05 01:31:32;;;;;;;0.10;0.10;;;;;;;;;;5117696;27;20240;-70
2022/06/05 01:34:01;;;;;;;0.10;0.10;;;;;;;;;;5113591;27;20481;-70
2022/06/05 01:36:31;;;;;;;0.03;0.03;;;;;;;;;;5116976;27;20251;-70
2022/06/05 01:38:59;;;;;;;0.00;0.00;;;;;;;;;;5113266;27;20230;-70
2022/06/05 01:41:28;;;;;;;0.10;0.10;;;;;;;;;;5116421;27;20237;-69
2022/06/05 01:43:59;;;;;;;0.10;0.10;;;;;;;;;;5114317;27;20204;-70
2022/06/05 01:46:33;;;;;;;0.10;0.10;;;;;;;;;;5116118;27;20250;-70
2022/06/05 01:49:02;;;;;;;0.00;0.00;;;;;;;;;;5112955;27;20483;-70
2022/06/05 01:51:30;;;;;;;0.10;0.10;;;;;;;;;;5117068;27;20237;-70
2022/06/05 01:53:57;;;;;;;0.03;0.03;;;;;;;;;;5113693;27;20215;-69
2022/06/05 01:56:26;;;;;;;0.10;0.10;;;;;;;;;;5115405;27;20238;-70
2022/06/05 01:58:54;;;;;;;0.03;0.03;;;;;;;;;;5114569;27;20205;-69
2022/06/05 02:01:23;;;;;;;0.10;0.10;;;;;;;;;;5114712;27;20246;-70
2022/06/05 02:03:53;;;;;;;0.03;0.03;;;;;;;;;;5115377;27;20216;-71
2022/06/05 02:06:22;;;;;;;0.00;0.00;;;;;;;;;;5113404;27;20254;-71
2022/06/05 02:08:52;;;;;;;0.00;0.00;;;;;;;;;;5115866;27;20288;-70
2022/06/05 02:11:20;;;;;;;0.10;0.10;;;;;;;;;;5113717;27;20235;-69
2022/06/05 02:13:46;;;;;;;0.07;0.07;;;;;;;;;;5116252;27;20392;-71
2022/06/05 02:16:13;;;;;;;0.10;0.10;;;;;;;;;;5112039;27;20236;-71
2022/06/05 02:18:41;;;;;;;0.10;0.10;;;;;;;;;;5118203;27;20204;-71
2022/06/05 02:21:07;;;;;;;0.10;0.10;;;;;;;;;;5110355;27;20592;-70
2022/06/05 02:23:34;;;;;;;0.03;0.03;;;;;;;;;;5119373;27;20199;-70
2022/06/05 02:26:01;;;;;;;0.10;0.10;;;;;;;;;;5108848;27;20242;-69
2022/06/05 02:28:27;;;;;;;0.10;0.10;;;;;;;;;;5121065;27;20229;-71
2022/06/05 02:30:58;;;;;;;0.00;0.00;;;;;;;;;;5106885;27;20566;-71
2022/06/05 02:33:31;;;;;;;0.03;0.03;;;;;;;;;;5121692;27;20382;-71
2022/06/05 02:36:01;;;;;;;0.03;0.03;;;;;;;;;;5107730;27;20240;-70
2022/06/05 02:38:34;;;;;;;0.10;0.10;;;;;;;;;;5121076;27;20208;-71
2022/06/05 02:41:03;;;;;;;0.10;0.10;;;;;;;;;;5107423;27;20238;-69
2022/06/05 02:43:31;;;;;;;0.10;0.10;;;;;;;;;;5120207;27;20204;-70
2022/06/05 02:46:02;;;;;;;0.10;0.10;;;;;;;;;;5107368;27;20570;-71
2022/06/05 02:48:30;;;;;;;0.00;0.00;;;;;;;;;;5120855;27;20279;-70
2022/06/05 02:51:01;;;;;;;0.10;0.10;;;;;;;;;;5107118;27;20298;-71
2022/06/05 02:53:29;;;;;;;0.10;0.10;;;;;;;;;;5120767;27;20232;-69
2022/06/05 02:55:55;;;;;;;0.00;0.00;;;;;;;;;;5106528;27;20250;-69
2022/06/05 02:58:22;;;;;;;0.10;0.10;;;;;;;;;;5122000;27;20280;-69
2022/06/05 03:03:28;;;;;;;0.00;0.00;;;;;;;;;;5119375;27;20197;-70
2022/06/05 03:05:55;;;;;;;0.10;0.10;;;;;;;;;;5106381;27;20593;-69
2022/06/05 03:08:21;;;;;;;0.00;0.00;;;;;;;;;;5121733;27;20213;-70
2022/06/05 03:10:49;;;;;;;0.10;0.10;;;;;;;;;;5104138;27;20241;-71
2022/06/05 03:13:15;;;;;;;0.10;0.10;;;;;;;;;;5123838;27;20286;-70
2022/06/05 03:15:42;;;;;;;0.03;0.03;;;;;;;;;;5102803;27;20435;-70
2022/06/05 03:18:08;;;;;;;0.10;0.10;;;;;;;;;;5125378;27;20393;-70
2022/06/05 03:20:35;;;;;;;0.10;0.10;;;;;;;;;;5100510;27;20240;-69
2022/06/05 03:23:02;;;;;;;0.10;0.10;;;;;;;;;;5127175;27;20191;-69
2022/06/05 03:25:29;;;;;;;0.10;0.10;;;;;;;;;;5098473;27;20314;-70
2022/06/05 03:27:57;;;;;;;0.10;0.10;;;;;;;;;;5128735;27;20262;-70
2022/06/05 03:30:23;;;;;;;0.10;0.10;;;;;;;;;;5097265;28;20421;-70
2022/06/05 03:32:50;;;;;;;0.10;0.10;;;;;;;;;;5130247;27;20208;-70
2022/06/05 03:35:16;;;;;;;0.10;0.10;;;;;;;;;;5095279;27;20397;-69
2022/06/05 03:37:43;;;;;;;0.10;0.10;;;;;;;;;;5132096;27;20202;-71
2022/06/05 03:40:10;;;;;;;0.10;0.10;;;;;;;;;;5093175;28;20220;-71
2022/06/05 03:42:36;;;;;;;0.10;0.10;;;;;;;;;;5133836;27;20211;-70
2022/06/05 03:45:05;;;;;;;0.10;0.10;;;;;;;;;;5102354;28;20240;-70
2022/06/05 03:47:31;;;;;;;0.10;0.10;;;;;;;;;;5090830;28;20283;-70
2022/06/05 03:49:57;;;;;;;0.10;0.10;;;;;;;;;;5102294;28;20267;-70
2022/06/05 03:52:24;;;;;;;0.10;0.10;;;;;;;;;;5124215;27;20252;-69
2022/06/05 03:54:50;;;;;;;0.10;0.10;;;;;;;;;;5102665;28;20211;-70
2022/06/05 03:57:16;;;;;;;0.10;0.10;;;;;;;;;;5124445;27;20235;-70
2022/06/05 03:59:43;;;;;;;0.10;0.10;;;;;;;;;;5101961;28;20392;-69
2022/06/05 04:02:11;;;;;;;0.10;0.10;;;;;;;;;;5124098;28;20240;-70
2022/06/05 04:04:37;;;;;;;0.10;0.10;;;;;;;;;;5101893;28;20581;-71
2022/06/05 04:07:04;;;;;;;0.10;0.10;;;;;;;;;;5122729;28;20264;-72
2022/06/05 04:09:30;;;;;;;0.00;0.00;;;;;;;;;;5103033;28;20205;-70
2022/06/05 04:11:57;;;;;;;0.10;0.10;;;;;;;;;;5122146;28;20286;-70
2022/06/05 04:14:23;;;;;;;0.10;0.10;;;;;;;;;;5103827;28;20274;-70
2022/06/05 04:16:50;;;;;;;0.00;0.00;;;;;;;;;;5120111;28;20266;-70
2022/06/05 04:19:17;;;;;;;0.10;0.10;;;;;;;;;;5106050;28;20210;-69
2022/06/05 04:21:47;;;;;;;0.10;0.10;;;;;;;;;;5118306;28;20242;-69
2022/06/05 04:24:14;;;;;;;0.20;0.20;;;;;;;;;;5106839;28;20279;-69
2022/06/05 04:26:41;;;;;;;0.10;0.10;;;;;;;;;;5117334;28;20250;-70
2022/06/05 04:29:07;;;;;;;0.10;0.10;;;;;;;;;;5108380;28;20213;-70
2022/06/05 04:31:35;;;;;;;0.10;0.10;;;;;;;;;;5115767;28;20299;-70
2022/06/05 04:34:02;;;;;;;0.00;0.00;;;;;;;;;;5110208;28;20208;-70
2022/06/05 04:36:30;;;;;;;0.00;0.00;;;;;;;;;;5114221;28;20238;-70
2022/06/05 04:38:56;;;;;;;0.00;0.00;;;;;;;;;;5111666;28;20216;-69
2022/06/05 04:41:24;;;;;;;0.10;0.10;;;;;;;;;;5112431;28;20238;-70
2022/06/05 04:43:51;;;;;;;0.00;0.00;;;;;;;;;;5113159;28;20569;-71
2022/06/05 04:46:18;;;;;;;0.10;0.10;;;;;;;;;;5111022;28;20298;-70
2022/06/05 04:48:44;;;;;;;0.10;0.10;;;;;;;;;;5114889;28;20274;-69
2022/06/05 04:51:12;;;;;;;0.10;0.10;;;;;;;;;;5109144;28;20240;-70
2022/06/05 04:53:40;;;;;;;0.10;0.10;;;;;;;;;;5116320;28;20212;-69
2022/06/05 04:56:07;;;;;;;0.00;0.00;;;;;;;;;;5107949;28;20317;-70
2022/06/05 04:58:34;;;;;;;0.10;0.10;;;;;;;;;;5117413;28;20208;-75
2022/06/05 05:01:01;;;;;;;0.10;0.10;;;;;;;;;;5105946;28;20490;-76
2022/06/05 05:03:28;;;;;;;0.10;0.10;;;;;;;;;;5119268;28;20244;-76
2022/06/05 05:05:54;;;;;;;0.10;0.10;;;;;;;;;;5107255;27;20642;-76
2022/06/05 05:08:20;;;;;;;0.10;0.10;;;;;;;;;;5124370;27;20487;-75
2022/06/05 05:10:48;;;;;;;0.00;0.00;;;;;;;;;;5106012;27;20254;-75
2022/06/05 05:13:15;;;;;;;0.10;0.10;;;;;;;;;;5126073;27;20228;-76
2022/06/05 05:15:41;;;;;;;0.10;0.10;;;;;;;;;;5104319;27;20244;-77
2022/06/05 05:18:08;;;;;;;0.10;0.10;;;;;;;;;;5115379;28;20202;-76
2022/06/05 05:20:34;;;;;;;0.10;0.10;;;;;;;;;;5102094;27;20251;-79
2022/06/05 05:23:00;;;;;;;0.00;0.00;;;;;;;;;;5129661;27;20510;-76
2022/06/05 05:25:26;;;;;;;0.07;0.07;;;;;;;;;;5099973;27;20273;-77
2022/06/05 05:27:54;;;;;;;0.10;0.10;;;;;;;;;;5131398;27;20224;-76
2022/06/05 05:30:21;;;;;;;0.10;0.10;;;;;;;;;;5098430;27;20279;-76
2022/06/05 05:32:47;;;;;;;0.10;0.10;;;;;;;;;;5133119;27;20211;-76
2022/06/05 05:35:13;;;;;;;0.00;0.00;;;;;;;;;;5096653;27;20207;-76
2022/06/05 05:37:40;;;;;;;0.10;0.10;;;;;;;;;;5134710;27;20194;-77
2022/06/05 05:42:51;;;;;;;0.10;0.10;;;;;;;;;;5104482;28;20225;-76
2022/06/05 05:45:19;;;;;;;0.10;0.10;;;;;;;;;;5097419;27;20218;-78
2022/06/05 05:47:46;;;;;;;0.10;0.10;;;;;;;;;;5133438;27;20262;-75
2022/06/05 05:50:15;;;;;;;0.10;0.10;;;;;;;;;;5095808;27;20275;-77
2022/06/05 05:52:42;;;;;;;0.10;0.10;;;;;;;;;;5134515;27;20208;-77
2022/06/05 05:55:10;;;;;;;0.00;0.00;;;;;;;;;;5094795;28;20226;-77
2022/06/05 05:57:37;;;;;;;0.00;0.00;;;;;;;;;;5135555;27;20260;-77
2022/06/05 06:00:03;;;;;;;0.00;0.00;;;;;;;;;;5104319;28;20232;-77
2022/06/05 06:02:31;;;;;;;0.10;0.10;;;;;;;;;;5126303;27;20323;-77
2022/06/05 06:04:57;;;;;;;0.00;0.00;;;;;;;;;;5104045;28;20400;-77
2022/06/05 06:07:24;;;;;;;0.00;0.00;;;;;;;;;;5126314;27;20273;-78
2022/06/05 06:09:50;;;;;;;0.07;0.07;;;;;;;;;;5104084;28;20317;-76
2022/06/05 06:12:16;;;;;;;0.10;0.10;;;;;;;;;;5126266;27;20274;-76
2022/06/05 06:14:43;;;;;;;0.10;0.10;;;;;;;;;;5103769;28;20206;-76
2022/06/05 06:17:09;;;;;;;0.10;0.10;;;;;;;;;;5124950;27;20316;-77
2022/06/05 06:19:37;;;;;;;0.10;0.10;;;;;;;;;;5103597;28;20244;-76
2022/06/05 06:22:05;;;;;;;0.10;0.10;;;;;;;;;;5125583;27;20262;-78
2022/06/05 06:24:31;;;;;;;0.10;0.10;;;;;;;;;;5103601;28;20209;-76
2022/06/05 06:26:57;;;;;;;0.10;0.10;;;;;;;;;;5123884;27;20271;-78
2022/06/05 06:29:24;;;;;;;0.10;0.10;;;;;;;;;;5104973;27;20223;-76
2022/06/05 06:31:50;;;;;;;0.10;0.10;;;;;;;;;;5121817;27;20325;-77
2022/06/05 06:34:17;;;;;;;0.10;0.10;;;;;;;;;;5107236;27;20471;-76
2022/06/05 06:36:44;;;;;;;0.00;0.00;;;;;;;;;;5119717;27;20247;-77
2022/06/05 06:39:11;;;;;;;0.10;0.10;;;;;;;;;;5108659;27;20480;-76
2022/06/05 06:41:37;;;;;;;0.10;0.10;;;;;;;;;;5118071;27;20307;-77
2022/06/05 06:44:04;;;;;;;0.05;0.05;;;;;;;;;;5110105;27;20206;-77
2022/06/05 06:46:31;;;;;;;0.00;0.00;;;;;;;;;;5116249;27;20246;-79
2022/06/05 06:48:57;;;;;;;0.10;0.10;;;;;;;;;;5112098;27;20305;-77
2022/06/05 06:51:24;;;;;;;0.10;0.10;;;;;;;;;;5114081;27;20532;-76
2022/06/05 06:53:52;;;;;;;0.00;0.00;;;;;;;;;;5113494;27;20213;-76
2022/06/05 06:56:19;;;;;;;0.10;0.10;;;;;;;;;;5112448;27;20241;-77
2022/06/05 06:58:46;;;;;;;0.10;0.10;;;;;;;;;;5115110;27;20279;-76
2022/06/05 07:01:13;;;;;;;0.10;0.10;;;;;;;;;;5110751;27;20239;-77
2022/06/05 07:03:40;;;;;;;0.10;0.10;;;;;;;;;;5117032;27;20204;-76
2022/06/05 07:06:07;;;;;;;0.10;0.10;;;;;;;;;;5108982;27;20560;-75
2022/06/05 07:08:34;;;;;;;0.10;0.10;;;;;;;;;;5118167;27;20240;-77
2022/06/05 07:11:05;;;;;;;0.00;0.00;;;;;;;;;;5107649;27;20261;-76
2022/06/05 07:13:31;;;;;;;0.10;0.10;;;;;;;;;;5119246;27;20191;-76
2022/06/05 07:15:58;;;;;;;0.10;0.10;;;;;;;;;;5106671;27;20243;-77
2022/06/05 07:18:24;;;;;;;0.05;0.05;;;;;;;;;;5121127;27;20210;-76
2022/06/05 07:20:51;;;;;;;0.00;0.00;;;;;;;;;;5104626;27;20263;-77
2022/06/05 07:23:17;;;;;;;0.10;0.10;;;;;;;;;;5122676;27;20278;-78
2022/06/05 07:25:47;;;;;;;0.10;0.10;;;;;;;;;;5102789;27;20614;-76
2022/06/05 07:28:15;;;;;;;0.03;0.03;;;;;;;;;;5123564;27;20412;-76
2022/06/05 07:30:41;;;;;;;0.10;0.10;;;;;;;;;;5102268;27;20304;-77
2022/06/05 07:33:08;;;;;;;0.03;0.03;;;;;;;;;;5125466;27;20210;-76
2022/06/05 07:35:34;;;;;;;0.08;0.08;;;;;;;;;;5100132;27;20239;-76
2022/06/05 07:38:00;;;;;;;0.03;0.03;;;;;;;;;;5127453;27;20208;-77
2022/06/05 07:40:27;;;;;;;0.03;0.03;;;;;;;;;;5097430;27;20250;-78
2022/06/05 07:42:53;;;;;;;0.00;0.00;;;;;;;;;;5129348;27;20208;-77
2022/06/05 07:45:21;;;;;;;0.00;0.00;;;;;;;;;;5095889;28;20249;-68
2022/06/05 07:47:48;;;;;;;0.03;0.03;;;;;;;;;;5130661;27;20191;-67
2022/06/05 07:50:14;;;;;;;0.10;0.10;;;;;;;;;;5094283;27;20204;-66
2022/06/05 07:55:26;;;;;;;0.10;0.10;;;;;;;;;;5097471;27;20277;-67
2022/06/05 07:57:52;;;;;;;0.00;0.00;;;;;;;;;;5129286;27;20203;-68
2022/06/05 08:00:19;;;;;;;0.10;0.10;;;;;;;;;;5095140;28;20279;-67
2022/06/05 08:02:47;;;;;;;0.00;0.00;;;;;;;;;;5131063;28;20539;-67
2022/06/05 08:05:14;;;;;;;0.10;0.10;;;;;;;;;;5094240;28;20549;-67
2022/06/05 08:07:40;;;;;;;0.00;0.00;;;;;;;;;;5132219;28;20213;-68
2022/06/05 08:10:07;;;;;;;0.00;0.00;;;;;;;;;;5092232;28;20537;-66
2022/06/05 08:12:35;;;;;;;0.10;0.10;;;;;;;;;;5133903;28;20455;-67
2022/06/05 08:15:04;;;;;;;0.03;0.03;;;;;;;;;;5102548;28;20236;-68
2022/06/05 08:17:31;;;;;;;0.05;0.05;;;;;;;;;;5125185;28;20243;-67
2022/06/05 08:19:59;;;;;;;0.10;0.10;;;;;;;;;;5102807;28;20204;-67
2022/06/05 08:22:26;;;;;;;0.10;0.10;;;;;;;;;;5124847;28;20612;-67
2022/06/05 08:24:53;;;;;;;0.00;0.00;;;;;;;;;;5102923;28;20237;-66
2022/06/05 08:27:20;;;;;;;0.00;0.00;;;;;;;;;;5124839;28;20258;-67
2022/06/05 08:29:47;;;;;;;0.00;0.00;;;;;;;;;;5102604;28;20244;-67
2022/06/05 08:32:14;;;;;;;0.00;0.00;;;;;;;;;;5125048;28;20233;-66
2022/06/05 08:34:40;;;;;;;0.00;0.00;;;;;;;;;;5102371;28;20220;-68
2022/06/05 08:42:40;;;;;;;0.00;0.00;;;;;;;;;;5094676;28;20267;-66
2022/06/05 08:45:10;;;;;;;0.00;0.00;;;;;;;;;;5096353;27;20240;-65
2022/06/05 08:47:40;;;;;;;0.00;0.00;;;;;;;;;;5137478;27;20224;-68
2022/06/05 08:50:13;;;;;;;0.00;0.00;;;;;;;;;;5096370;28;20395;-66
2022/06/05 08:52:45;;;;;;;0.00;0.00;;;;;;;;;;5136828;27;20188;-67
2022/06/05 08:55:15;;;;;;;0.00;0.00;;;;;;;;;;5097764;27;20208;-66
2022/06/05 08:57:45;;;;;;;0.00;0.00;;;;;;;;;;5136275;27;20193;-67
2022/06/05 09:00:16;;;;;;;0.00;0.00;;;;;;;;;;5097523;27;20395;-67
2022/06/05 09:02:46;;;;;;;0.00;0.00;;;;;;;;;;5136131;27;20510;-67
2022/06/05 09:05:14;;;;;;;0.00;0.00;;;;;;;;;;5097015;27;20275;-67
2022/06/05 09:07:44;;;;;;;0.00;0.00;;;;;;;;;;5136456;27;20212;-67
2022/06/05 09:10:15;;;;;;;0.03;0.03;;;;;;;;;;5096734;27;20205;-67
2022/06/05 09:12:45;;;;;;;0.10;0.10;;;;;;;;;;5136488;27;20205;-67
2022/06/05 09:15:16;;;;;;;0.10;0.10;;;;;;;;;;5097114;28;20435;-66
2022/06/05 09:17:46;;;;;;;0.00;0.00;;;;;;;;;;5135826;27;20385;-68
2022/06/05 09:20:14;;;;;;;0.05;0.05;;;;;;;;;;5097484;27;20216;-67
2022/06/05 09:22:43;;;;;;;0.00;0.00;;;;;;;;;;5136095;27;20211;-67
2022/06/05 09:25:24;;;;;;;0.00;0.00;;;;;;;;;;5096662;27;20484;-67
2022/06/05 09:28:05;;;;;;;0.00;0.00;;;;;;;;;;5133520;27;20587;-67
2022/06/05 09:30:35;;;;;;;0.00;0.00;;;;;;;;;;5102369;27;20239;-67
2022/06/05 09:33:06;;;;;;;0.00;0.00;;;;;;;;;;5130500;27;20200;-67
2022/06/05 09:35:35;;;;;;;0.00;0.00;;;;;;;;;;5102632;27;20243;-67
2022/06/05 09:38:03;;;;;;;0.10;0.10;;;;;;;;;;5129891;27;20194;-66
2022/06/05 09:40:31;;;;;;;0.10;0.10;;;;;;;;;;5101691;27;20259;-67
2022/06/05 09:43:14;;;;;;;0.00;0.00;;;;;;;;;;5130939;27;20249;-67
2022/06/05 09:45:48;;;;;;;0.00;0.00;;;;;;;;;;5104894;27;20543;-66
2022/06/05 09:48:20;;;;;;;0.00;0.00;;;;;;;;;;5126600;27;20490;-67
2022/06/05 09:50:47;;;;;;;0.00;0.00;;;;;;;;;;5105951;27;20347;-68
2022/06/05 09:53:16;;;;;;;0.00;0.00;;;;;;;;;;5126469;27;20203;-68
2022/06/05 09:55:48;;;;;;;0.00;0.00;;;;;;;;;;5104872;27;20516;-67
2022/06/05 09:58:25;;;;;;;0.08;0.08;;;;;;;;;;5126078;27;20215;-67
2022/06/05 10:00:53;;;;;;;0.10;0.10;;;;;;;;;;5107281;27;20598;-66
2022/06/05 10:03:21;;;;;;;0.00;0.00;;;;;;;;;;5124698;27;20230;-68
2022/06/05 10:06:04;;;;;;;0.00;0.00;;;;;;;;;;5105944;27;20237;-67
2022/06/05 10:08:33;;;;;;;0.00;0.00;;;;;;;;;;5121510;27;20211;-67
2022/06/05 10:11:01;;;;;;;0.00;0.00;;;;;;;;;;5109068;27;20240;-66
2022/06/05 10:13:40;;;;;;;0.00;0.00;;;;;;;;;;5122322;27;20202;-67
2022/06/05 10:16:10;;;;;;;0.10;0.10;;;;;;;;;;5111075;27;20243;-67
2022/06/05 10:18:39;;;;;;;0.00;0.00;;;;;;;;;;5119646;27;20506;-66
2022/06/05 10:21:07;;;;;;;0.00;0.00;;;;;;;;;;5110491;27;20241;-66
2022/06/05 10:23:47;;;;;;;0.00;0.00;;;;;;;;;;5120585;27;20199;-66
2022/06/05 10:26:31;;;;;;;0.00;0.00;;;;;;;;;;5112319;27;20248;-67
2022/06/05 10:29:10;;;;;;;0.00;0.00;;;;;;;;;;5114109;27;20190;-66
2022/06/05 10:31:37;;;;;;;0.00;0.00;;;;;;;;;;5118806;27;20229;-68
2022/06/05 10:34:06;;;;;;;0.00;0.00;;;;;;;;;;5112121;27;20240;-67
2022/06/05 10:36:45;;;;;;;0.00;0.00;;;;;;;;;;5117715;27;20412;-66
2022/06/05 10:39:13;;;;;;;0.00;0.00;;;;;;;;;;5109625;27;20194;-66
2022/06/05 10:41:42;;;;;;;0.00;0.00;;;;;;;;;;5119559;27;20229;-66
2022/06/05 10:44:15;;;;;;;0.00;0.00;;;;;;;;;;5110404;27;20203;-66
2022/06/05 10:46:46;;;;;;;0.00;0.00;;;;;;;;;;5119639;27;20237;-67
2022/06/05 10:49:17;;;;;;;0.00;0.00;;;;;;;;;;5109621;27;20419;-67
2022/06/05 10:51:48;;;;;;;0.00;0.00;;;;;;;;;;5119939;27;20285;-67
2022/06/05 10:54:27;;;;;;;0.00;0.00;;;;;;;;;;5108489;27;20193;-67
2022/06/05 10:56:57;;;;;;;0.00;0.00;;;;;;;;;;5122974;27;20413;-67
2022/06/05 10:59:36;;;;;;;0.00;0.00;;;;;;;;;;5105891;27;20238;-66
2022/06/05 11:02:16;;;;;;;0.00;0.00;;;;;;;;;;5124059;27;20282;-67
2022/06/05 11:04:47;;;;;;;0.00;0.00;;;;;;;;;;5104108;28;20365;-68
2022/06/05 11:07:30;;;;;;;0.00;0.00;;;;;;;;;;5125883;27;20264;-67
2022/06/05 11:09:58;;;;;;;0.00;0.00;;;;;;;;;;5103953;28;20210;-67
2022/06/05 11:15:22;;;;;;;0.00;0.00;;;;;;;;;;5095098;27;20210;-66
2022/06/05 11:17:52;;;;;;;0.00;0.00;;;;;;;;;;5131951;27;20251;-67
2022/06/05 11:20:21;;;;;;;0.00;0.00;;;;;;;;;;5096508;28;20230;-67
2022/06/05 11:22:54;;;;;;;0.00;0.00;;;;;;;;;;5132512;27;20521;-66
2022/06/05 11:25:25;;;;;;;0.00;0.00;;;;;;;;;;5097251;27;20398;-67
2022/06/05 11:27:54;;;;;;;0.00;0.00;;;;;;;;;;5130827;27;20250;-66
2022/06/05 11:30:25;;;;;;;0.00;0.00;;;;;;;;;;5097317;27;20448;-66
2022/06/05 11:32:57;;;;;;;0.00;0.00;;;;;;;;;;5130944;27;20191;-67
2022/06/05 11:35:28;;;;;;;0.25;0.25;;;;;;;;;;5098007;27;20328;-67
2022/06/05 11:37:57;;;;;;;0.00;0.00;;;;;;;;;;5129610;27;20282;-67
2022/06/05 11:40:35;;;;;;;0.00;0.00;;;;;;;;;;5097561;28;20286;-67
2022/06/05 11:43:09;;;;;;;0.00;0.00;;;;;;;;;;5128186;27;20546;-67
2022/06/05 11:45:45;;;;;;;0.00;0.00;;;;;;;;;;5101222;27;20233;-67
2022/06/05 11:48:14;;;;;;;0.00;0.00;;;;;;;;;;5125249;27;20277;-68
2022/06/05 11:50:44;;;;;;;0.00;0.00;;;;;;;;;;5102553;27;20263;-67
2022/06/05 11:53:14;;;;;;;0.00;0.00;;;;;;;;;;5124714;27;20274;-68
2022/06/05 11:55:45;;;;;;;0.00;0.00;;;;;;;;;;5102387;27;20252;-66
2022/06/05 11:58:12;;;;;;;0.05;0.05;;;;;;;;;;5124619;27;20197;-67
2022/06/05 12:00:43;;;;;;;0.00;0.00;;;;;;;;;;5101190;28;20348;-66
2022/06/05 12:03:15;;;;;;;0.00;0.00;;;;;;;;;;5126334;28;20298;-66
2022/06/05 12:05:44;;;;;;;0.00;0.00;;;;;;;;;;5102574;28;20343;-66
2022/06/05 12:08:13;;;;;;;0.00;0.00;;;;;;;;;;5124495;28;20281;-66
2022/06/05 12:10:41;;;;;;;0.00;0.00;;;;;;;;;;5102002;28;20233;-66
2022/06/05 12:13:16;;;;;;;0.00;0.00;;;;;;;;;;5125835;28;20412;-66
2022/06/05 12:15:49;;;;;;;0.00;0.00;;;;;;;;;;5105528;27;20243;-66
2022/06/05 12:18:21;;;;;;;0.05;0.05;;;;;;;;;;5127467;27;20521;-66
2022/06/05 12:20:49;;;;;;;0.00;0.00;;;;;;;;;;5108012;27;20237;-66
2022/06/05 12:23:18;;;;;;;0.00;0.00;;;;;;;;;;5127362;27;20254;-67
2022/06/05 12:25:48;;;;;;;0.00;0.00;;;;;;;;;;5107334;27;20260;-66
2022/06/05 12:28:17;;;;;;;0.00;0.00;;;;;;;;;;5128043;27;20260;-66
2022/06/05 12:30:49;;;;;;;0.00;0.00;;;;;;;;;;5106747;27;20285;-66
2022/06/05 12:33:17;;;;;;;0.00;0.00;;;;;;;;;;5126558;27;20194;-66
2022/06/05 12:35:49;;;;;;;0.00;0.00;;;;;;;;;;5106393;27;20301;-66
2022/06/05 12:38:20;;;;;;;0.00;0.00;;;;;;;;;;5126912;27;20191;-66
2022/06/05 12:40:52;;;;;;;0.00;0.00;;;;;;;;;;5107326;27;20237;-66
2022/06/05 12:43:22;;;;;;;0.00;0.00;;;;;;;;;;5125688;27;20441;-67
2022/06/05 12:45:48;;;;;;;0.00;0.00;;;;;;;;;;5106785;27;20509;-68
2022/06/05 12:48:16;;;;;;;0.00;0.00;;;;;;;;;;5125946;27;20278;-66
2022/06/05 12:50:48;;;;;;;0.00;0.00;;;;;;;;;;5105779;27;20237;-68
2022/06/05 12:53:19;;;;;;;0.00;0.00;;;;;;;;;;5126725;27;20236;-67
2022/06/05 12:55:48;;;;;;;0.00;0.00;;;;;;;;;;5106606;27;20301;-67
2022/06/05 12:58:19;;;;;;;0.00;0.00;;;;;;;;;;5126662;27;20210;-67
2022/06/05 13:00:48;;;;;;;0.00;0.00;;;;;;;;;;5106131;27;20300;-67
2022/06/05 13:03:25;;;;;;;0.00;0.00;;;;;;;;;;5126140;27;20235;-66
2022/06/05 13:05:55;;;;;;;0.00;0.00;;;;;;;;;;5107939;27;20244;-65
2022/06/05 13:08:24;;;;;;;0.00;0.00;;;;;;;;;;5124512;27;20210;-65
2022/06/05 13:10:53;;;;;;;0.00;0.00;;;;;;;;;;5107579;27;20645;-66
2022/06/05 13:13:22;;;;;;;0.00;0.00;;;;;;;;;;5124817;27;20273;-67
2022/06/05 13:15:51;;;;;;;0.00;0.00;;;;;;;;;;5106834;27;20582;-65
2022/06/05 13:18:20;;;;;;;0.00;0.00;;;;;;;;;;5125448;27;20491;-67
2022/06/05 13:20:52;;;;;;;0.00;0.00;;;;;;;;;;5106233;27;20239;-66
2022/06/05 13:23:24;;;;;;;0.00;0.00;;;;;;;;;;5124881;27;20552;-67
2022/06/05 13:25:54;;;;;;;0.00;0.00;;;;;;;;;;5106442;27;20278;-67
2022/06/05 13:28:23;;;;;;;0.00;0.00;;;;;;;;;;5123809;27;20223;-67
2022/06/05 13:30:53;;;;;;;0.00;0.00;;;;;;;;;;5107104;27;20608;-66
2022/06/05 13:33:22;;;;;;;0.00;0.00;;;;;;;;;;5124125;27;20202;-67
2022/06/05 13:35:54;;;;;;;0.00;0.00;;;;;;;;;;5106122;27;20241;-66
2022/06/05 13:38:26;;;;;;;0.00;0.00;;;;;;;;;;5123972;27;20191;-66
2022/06/05 13:40:59;;;;;;;0.00;0.00;;;;;;;;;;5107283;27;20237;-66
2022/06/05 13:43:27;;;;;;;0.00;0.00;;;;;;;;;;5122512;27;20238;-66
2022/06/05 13:46:01;;;;;;;0.00;0.00;;;;;;;;;;5107437;27;20817;-66
2022/06/05 13:48:31;;;;;;;0.00;0.00;;;;;;;;;;5122132;27;20366;-66
2022/06/05 13:51:00;;;;;;;0.00;0.00;;;;;;;;;;5108180;27;20233;-66
2022/06/05 13:53:33;;;;;;;0.00;0.00;;;;;;;;;;5122284;27;20198;-66
2022/06/05 13:56:01;;;;;;;0.00;0.00;;;;;;;;;;5108844;27;20241;-66
2022/06/05 13:58:32;;;;;;;0.00;0.00;;;;;;;;;;5121797;27;20202;-66
2022/06/05 14:01:04;;;;;;;0.00;0.00;;;;;;;;;;5108598;27;20832;-66
2022/06/05 14:03:35;;;;;;;0.00;0.00;;;;;;;;;;5121114;27;20217;-66
2022/06/05 14:06:02;;;;;;;0.00;0.00;;;;;;;;;;5109280;27;20248;-66
2022/06/05 14:08:33;;;;;;;0.00;0.00;;;;;;;;;;5121077;27;20211;-66
2022/06/05 14:11:01;;;;;;;0.00;0.00;;;;;;;;;;5108928;27;20294;-66
2022/06/05 14:13:28;;;;;;;0.00;0.00;;;;;;;;;;5121434;27;20521;-65
2022/06/05 14:15:56;;;;;;;0.00;0.00;;;;;;;;;;5107235;27;20237;-66
2022/06/05 14:18:25;;;;;;;0.00;0.00;;;;;;;;;;5123085;27;20206;-66
2022/06/05 14:20:52;;;;;;;0.00;0.00;;;;;;;;;;5106434;27;20249;-66
2022/06/05 14:23:21;;;;;;;0.00;0.00;;;;;;;;;;5123647;27;20329;-67
2022/06/05 14:25:51;;;;;;;0.00;0.00;;;;;;;;;;5105139;27;20254;-67
2022/06/05 14:28:18;;;;;;;0.00;0.00;;;;;;;;;;5124126;27;20437;-67
2022/06/05 14:30:52;;;;;;;0.00;0.00;;;;;;;;;;5104213;27;20245;-66
2022/06/05 14:33:19;;;;;;;0.00;0.00;;;;;;;;;;5123548;27;20431;-66
2022/06/05 14:35:48;;;;;;;0.00;0.00;;;;;;;;;;5104597;27;20242;-66
2022/06/05 14:38:18;;;;;;;0.00;0.00;;;;;;;;;;5123764;27;20229;-66
2022/06/05 14:40:52;;;;;;;0.00;0.00;;;;;;;;;;5103751;27;20237;-66
2022/06/05 14:43:21;;;;;;;0.00;0.00;;;;;;;;;;5123061;27;20214;-66
2022/06/05 14:45:50;;;;;;;0.00;0.00;;;;;;;;;;5104874;27;20390;-66
2022/06/05 14:48:19;;;;;;;0.00;0.00;;;;;;;;;;5123438;27;20536;-66
2022/06/05 14:50:48;;;;;;;0.00;0.00;;;;;;;;;;5104015;27;20245;-66
2022/06/05 14:53:22;;;;;;;0.10;0.10;;;;;;;;;;5123636;27;20206;-67
2022/06/05 14:58:38;;;;;;;0.00;0.00;;;;;;;;;;5118760;27;20183;-67
2022/06/05 15:01:12;;;;;;;0.00;0.00;;;;;;;;;;5109151;27;20233;-68
2022/06/05 15:03:41;;;;;;;0.00;0.00;;;;;;;;;;5117468;27;20210;-66
2022/06/05 15:06:07;;;;;;;0.00;0.00;;;;;;;;;;5109708;27;20286;-66
2022/06/05 15:08:37;;;;;;;0.00;0.00;;;;;;;;;;5118653;27;20199;-66
2022/06/05 15:11:04;;;;;;;0.00;0.00;;;;;;;;;;5108433;27;20251;-66
2022/06/05 15:13:34;;;;;;;0.00;0.00;;;;;;;;;;5119370;27;20431;-66